sensor_id;sensor_type;location;lat;lon;timestamp;P1;durP1;ratioP1;P2;durP2;ratioP2
34896;SDS011;43407;51.828;-2.298;2023-01-10T00:01:30;16.95;;;2.60;;
34896;SDS011;43407;51.828;-2.298;2023-01-10T00:03:56;13.52;;;3.15;;
34896;SDS011;43407;51.828;-2.298;2023-01-10T00:06:21;16.02;;;3.85;;
34896;SDS011;43407;51.828;-2.298;2023-01-10T00:08:47;20.05;;;2.80;;
34896;SDS011;43407;51.828;-2.298;2023-01-10T00:11:12;14.57;;;3.00;;
34896;SDS011;43407;51.828;-2.298;2023-01-10T00:13:56;9.73;;;2.92;;
34896;SDS011;43407;51.828;-2.298;2023-01-10T00:16:22;12.07;;;2.85;;
34896;SDS011;43407;51.828;-2.298;2023-01-10T00:18:48;12.25;;;2.83;;
34896;SDS011;43407;51.828;-2.298;2023-01-10T00:21:13;9.60;;;2.72;;
34896;SDS011;43407;51.828;-2.298;2023-01-10T00:23:39;16.23;;;2.83;;
34896;SDS011;43407;51.828;-2.298;2023-01-10T00:26:05;11.80;;;2.85;;
34896;SDS011;43407;51.828;-2.298;2023-01-10T00:28:31;7.20;;;2.13;;
34896;SDS011;43407;51.828;-2.298;2023-01-10T00:30:59;11.95;;;2.72;;
34896;SDS011;43407;51.828;-2.298;2023-01-10T00:33:37;13.35;;;3.05;;
34896;SDS011;43407;51.828;-2.298;2023-01-10T00:36:03;19.15;;;2.95;;
34896;SDS011;43407;51.828;-2.298;2023-01-10T00:38:31;10.57;;;2.47;;
34896;SDS011;43407;51.828;-2.298;2023-01-10T00:41:00;13.88;;;2.80;;
34896;SDS011;43407;51.828;-2.298;2023-01-10T00:43:26;18.30;;;3.03;;
34896;SDS011;43407;51.828;-2.298;2023-01-10T00:46:10;15.80;;;2.85;;
34896;SDS011;43407;51.828;-2.298;2023-01-10T00:48:36;14.48;;;2.88;;
34896;SDS011;43407;51.828;-2.298;2023-01-10T00:51:02;14.48;;;2.97;;
34896;SDS011;43407;51.828;-2.298;2023-01-10T00:53:28;17.13;;;2.78;;
34896;SDS011;43407;51.828;-2.298;2023-01-10T00:55:54;17.15;;;3.38;;
34896;SDS011;43407;51.828;-2.298;2023-01-10T00:58:20;18.48;;;3.95;;
34896;SDS011;43407;51.828;-2.298;2023-01-10T01:00:46;15.05;;;3.03;;
34896;SDS011;43407;51.828;-2.298;2023-01-10T01:03:15;11.43;;;2.72;;
34896;SDS011;43407;51.828;-2.298;2023-01-10T01:05:41;19.10;;;3.30;;
34896;SDS011;43407;51.828;-2.298;2023-01-10T01:08:08;11.15;;;2.67;;
34896;SDS011;43407;51.828;-2.298;2023-01-10T01:10:34;17.95;;;3.08;;
34896;SDS011;43407;51.828;-2.298;2023-01-10T01:13:07;10.23;;;2.47;;
34896;SDS011;43407;51.828;-2.298;2023-01-10T01:15:35;10.38;;;2.78;;
34896;SDS011;43407;51.828;-2.298;2023-01-10T01:18:01;11.48;;;2.70;;
34896;SDS011;43407;51.828;-2.298;2023-01-10T01:20:26;12.15;;;2.58;;
34896;SDS011;43407;51.828;-2.298;2023-01-10T01:22:52;11.95;;;2.78;;
34896;SDS011;43407;51.828;-2.298;2023-01-10T01:25:18;14.02;;;2.88;;
34896;SDS011;43407;51.828;-2.298;2023-01-10T01:27:43;19.17;;;3.33;;
34896;SDS011;43407;51.828;-2.298;2023-01-10T01:30:09;16.73;;;3.03;;
34896;SDS011;43407;51.828;-2.298;2023-01-10T01:32:36;17.48;;;3.08;;
34896;SDS011;43407;51.828;-2.298;2023-01-10T01:35:01;12.35;;;3.13;;
34896;SDS011;43407;51.828;-2.298;2023-01-10T01:37:27;17.60;;;3.05;;
34896;SDS011;43407;51.828;-2.298;2023-01-10T01:39:52;10.63;;;2.42;;
34896;SDS011;43407;51.828;-2.298;2023-01-10T01:42:39;16.15;;;3.72;;
34896;SDS011;43407;51.828;-2.298;2023-01-10T01:47:32;23.52;;;3.40;;
34896;SDS011;43407;51.828;-2.298;2023-01-10T01:49:59;14.25;;;3.10;;
34896;SDS011;43407;51.828;-2.298;2023-01-10T01:52:27;15.18;;;3.15;;
34896;SDS011;43407;51.828;-2.298;2023-01-10T01:54:56;12.35;;;3.28;;
34896;SDS011;43407;51.828;-2.298;2023-01-10T01:57:23;16.10;;;3.10;;
34896;SDS011;43407;51.828;-2.298;2023-01-10T01:59:50;11.10;;;2.67;;
34896;SDS011;43407;51.828;-2.298;2023-01-10T02:02:22;16.73;;;3.38;;
34896;SDS011;43407;51.828;-2.298;2023-01-10T02:04:51;10.57;;;3.00;;
34896;SDS011;43407;51.828;-2.298;2023-01-10T02:07:20;16.30;;;2.83;;
34896;SDS011;43407;51.828;-2.298;2023-01-10T02:09:50;15.57;;;3.72;;
34896;SDS011;43407;51.828;-2.298;2023-01-10T02:12:18;11.38;;;2.95;;
34896;SDS011;43407;51.828;-2.298;2023-01-10T02:14:44;16.20;;;3.13;;
34896;SDS011;43407;51.828;-2.298;2023-01-10T02:17:11;19.50;;;3.30;;
34896;SDS011;43407;51.828;-2.298;2023-01-10T02:27:45;19.65;;;3.75;;
34896;SDS011;43407;51.828;-2.298;2023-01-10T02:33:45;21.95;;;4.28;;
34896;SDS011;43407;51.828;-2.298;2023-01-10T02:36:19;17.42;;;3.80;;
34896;SDS011;43407;51.828;-2.298;2023-01-10T02:42:34;14.57;;;3.55;;
34896;SDS011;43407;51.828;-2.298;2023-01-10T02:45:05;17.63;;;3.30;;
34896;SDS011;43407;51.828;-2.298;2023-01-10T02:47:34;17.05;;;3.63;;
34896;SDS011;43407;51.828;-2.298;2023-01-10T02:50:17;12.98;;;3.20;;
34896;SDS011;43407;51.828;-2.298;2023-01-10T02:52:59;14.73;;;3.33;;
34896;SDS011;43407;51.828;-2.298;2023-01-10T02:55:27;13.88;;;3.63;;
34896;SDS011;43407;51.828;-2.298;2023-01-10T02:58:38;21.23;;;3.72;;
34896;SDS011;43407;51.828;-2.298;2023-01-10T03:06:47;18.80;;;3.38;;
34896;SDS011;43407;51.828;-2.298;2023-01-10T03:09:21;8.70;;;2.47;;
34896;SDS011;43407;51.828;-2.298;2023-01-10T03:11:54;17.05;;;3.25;;
34896;SDS011;43407;51.828;-2.298;2023-01-10T03:14:25;12.10;;;3.17;;
34896;SDS011;43407;51.828;-2.298;2023-01-10T03:17:03;13.32;;;2.60;;
34896;SDS011;43407;51.828;-2.298;2023-01-10T03:19:32;7.75;;;2.25;;
34896;SDS011;43407;51.828;-2.298;2023-01-10T03:22:00;11.73;;;2.50;;
34896;SDS011;43407;51.828;-2.298;2023-01-10T03:24:37;15.75;;;2.88;;
34896;SDS011;43407;51.828;-2.298;2023-01-10T03:32:22;13.35;;;2.75;;
34896;SDS011;43407;51.828;-2.298;2023-01-10T03:34:49;14.88;;;2.95;;
34896;SDS011;43407;51.828;-2.298;2023-01-10T03:40:14;15.30;;;3.13;;
34896;SDS011;43407;51.828;-2.298;2023-01-10T03:45:53;15.82;;;2.35;;
34896;SDS011;43407;51.828;-2.298;2023-01-10T03:48:30;13.95;;;2.83;;
34896;SDS011;43407;51.828;-2.298;2023-01-10T03:50:58;13.82;;;2.97;;
34896;SDS011;43407;51.828;-2.298;2023-01-10T03:53:24;9.77;;;2.17;;
34896;SDS011;43407;51.828;-2.298;2023-01-10T03:55:50;10.38;;;2.53;;
34896;SDS011;43407;51.828;-2.298;2023-01-10T03:58:16;8.85;;;2.20;;
34896;SDS011;43407;51.828;-2.298;2023-01-10T04:00:45;11.40;;;2.40;;
34896;SDS011;43407;51.828;-2.298;2023-01-10T04:03:11;10.98;;;2.83;;
34896;SDS011;43407;51.828;-2.298;2023-01-10T04:05:37;13.10;;;3.17;;
34896;SDS011;43407;51.828;-2.298;2023-01-10T04:08:02;10.05;;;2.55;;
34896;SDS011;43407;51.828;-2.298;2023-01-10T04:10:28;15.77;;;2.80;;
34896;SDS011;43407;51.828;-2.298;2023-01-10T04:12:54;13.85;;;2.90;;
34896;SDS011;43407;51.828;-2.298;2023-01-10T04:15:19;7.32;;;1.90;;
34896;SDS011;43407;51.828;-2.298;2023-01-10T04:17:46;10.23;;;2.33;;
34896;SDS011;43407;51.828;-2.298;2023-01-10T04:20:12;9.93;;;2.40;;
34896;SDS011;43407;51.828;-2.298;2023-01-10T04:22:38;13.35;;;2.65;;
34896;SDS011;43407;51.828;-2.298;2023-01-10T04:25:03;9.88;;;2.70;;
34896;SDS011;43407;51.828;-2.298;2023-01-10T04:27:29;8.45;;;2.40;;
34896;SDS011;43407;51.828;-2.298;2023-01-10T04:29:55;12.13;;;3.03;;
34896;SDS011;43407;51.828;-2.298;2023-01-10T04:32:20;11.27;;;2.47;;
34896;SDS011;43407;51.828;-2.298;2023-01-10T04:34:46;9.55;;;2.63;;
34896;SDS011;43407;51.828;-2.298;2023-01-10T04:37:11;13.25;;;3.15;;
34896;SDS011;43407;51.828;-2.298;2023-01-10T04:39:37;18.70;;;3.08;;
34896;SDS011;43407;51.828;-2.298;2023-01-10T04:42:03;12.50;;;2.60;;
34896;SDS011;43407;51.828;-2.298;2023-01-10T04:44:28;22.83;;;3.50;;
34896;SDS011;43407;51.828;-2.298;2023-01-10T04:46:54;11.82;;;2.45;;
34896;SDS011;43407;51.828;-2.298;2023-01-10T04:49:19;9.75;;;2.47;;
34896;SDS011;43407;51.828;-2.298;2023-01-10T04:51:45;11.80;;;2.53;;
34896;SDS011;43407;51.828;-2.298;2023-01-10T04:54:10;11.90;;;2.58;;
34896;SDS011;43407;51.828;-2.298;2023-01-10T04:56:36;8.15;;;2.30;;
34896;SDS011;43407;51.828;-2.298;2023-01-10T04:59:01;7.32;;;2.08;;
34896;SDS011;43407;51.828;-2.298;2023-01-10T05:01:27;7.30;;;2.20;;
34896;SDS011;43407;51.828;-2.298;2023-01-10T05:03:53;8.13;;;2.20;;
34896;SDS011;43407;51.828;-2.298;2023-01-10T05:06:20;17.92;;;3.90;;
34896;SDS011;43407;51.828;-2.298;2023-01-10T05:08:46;16.90;;;3.15;;
34896;SDS011;43407;51.828;-2.298;2023-01-10T05:11:12;16.10;;;2.60;;
34896;SDS011;43407;51.828;-2.298;2023-01-10T05:13:38;23.90;;;3.67;;
34896;SDS011;43407;51.828;-2.298;2023-01-10T05:16:03;21.52;;;3.65;;
34896;SDS011;43407;51.828;-2.298;2023-01-10T05:18:29;22.67;;;3.53;;
34896;SDS011;43407;51.828;-2.298;2023-01-10T05:21:02;20.17;;;3.33;;
34896;SDS011;43407;51.828;-2.298;2023-01-10T05:23:29;21.80;;;3.58;;
34896;SDS011;43407;51.828;-2.298;2023-01-10T05:25:55;17.05;;;3.20;;
34896;SDS011;43407;51.828;-2.298;2023-01-10T05:28:21;21.23;;;3.90;;
34896;SDS011;43407;51.828;-2.298;2023-01-10T05:30:46;19.48;;;3.83;;
34896;SDS011;43407;51.828;-2.298;2023-01-10T05:33:12;23.77;;;4.03;;
34896;SDS011;43407;51.828;-2.298;2023-01-10T05:35:37;18.60;;;2.80;;
34896;SDS011;43407;51.828;-2.298;2023-01-10T05:38:03;13.23;;;3.00;;
34896;SDS011;43407;51.828;-2.298;2023-01-10T05:40:29;14.00;;;2.80;;
34896;SDS011;43407;51.828;-2.298;2023-01-10T05:42:54;21.40;;;3.33;;
34896;SDS011;43407;51.828;-2.298;2023-01-10T05:45:20;17.33;;;2.92;;
34896;SDS011;43407;51.828;-2.298;2023-01-10T05:47:45;17.38;;;3.08;;
34896;SDS011;43407;51.828;-2.298;2023-01-10T05:50:11;18.10;;;3.45;;
34896;SDS011;43407;51.828;-2.298;2023-01-10T05:52:36;12.10;;;2.97;;
34896;SDS011;43407;51.828;-2.298;2023-01-10T05:55:02;13.50;;;2.90;;
34896;SDS011;43407;51.828;-2.298;2023-01-10T05:57:28;13.02;;;2.78;;
34896;SDS011;43407;51.828;-2.298;2023-01-10T05:59:53;18.67;;;3.50;;
34896;SDS011;43407;51.828;-2.298;2023-01-10T06:02:19;15.40;;;2.78;;
34896;SDS011;43407;51.828;-2.298;2023-01-10T06:04:44;15.98;;;3.22;;
34896;SDS011;43407;51.828;-2.298;2023-01-10T06:07:10;13.35;;;2.88;;
34896;SDS011;43407;51.828;-2.298;2023-01-10T06:09:35;12.65;;;3.10;;
34896;SDS011;43407;51.828;-2.298;2023-01-10T06:12:01;18.20;;;3.28;;
34896;SDS011;43407;51.828;-2.298;2023-01-10T06:14:26;13.10;;;2.53;;
34896;SDS011;43407;51.828;-2.298;2023-01-10T06:16:52;10.82;;;2.42;;
34896;SDS011;43407;51.828;-2.298;2023-01-10T06:19:17;17.20;;;3.40;;
34896;SDS011;43407;51.828;-2.298;2023-01-10T06:21:43;13.27;;;3.03;;
34896;SDS011;43407;51.828;-2.298;2023-01-10T06:24:08;10.38;;;2.60;;
34896;SDS011;43407;51.828;-2.298;2023-01-10T06:26:34;11.50;;;2.83;;
34896;SDS011;43407;51.828;-2.298;2023-01-10T06:28:59;20.33;;;3.17;;
34896;SDS011;43407;51.828;-2.298;2023-01-10T06:31:25;17.63;;;3.55;;
34896;SDS011;43407;51.828;-2.298;2023-01-10T06:33:51;15.43;;;3.03;;
34896;SDS011;43407;51.828;-2.298;2023-01-10T06:36:17;15.02;;;3.13;;
34896;SDS011;43407;51.828;-2.298;2023-01-10T06:38:42;16.33;;;3.05;;
34896;SDS011;43407;51.828;-2.298;2023-01-10T06:41:08;16.13;;;3.20;;
34896;SDS011;43407;51.828;-2.298;2023-01-10T06:43:40;19.20;;;3.00;;
34896;SDS011;43407;51.828;-2.298;2023-01-10T06:46:06;18.83;;;3.47;;
34896;SDS011;43407;51.828;-2.298;2023-01-10T06:48:34;18.17;;;3.45;;
34896;SDS011;43407;51.828;-2.298;2023-01-10T06:51:00;23.27;;;4.55;;
34896;SDS011;43407;51.828;-2.298;2023-01-10T06:53:26;15.32;;;2.97;;
34896;SDS011;43407;51.828;-2.298;2023-01-10T06:55:53;23.27;;;4.00;;
34896;SDS011;43407;51.828;-2.298;2023-01-10T06:58:19;23.08;;;3.55;;
34896;SDS011;43407;51.828;-2.298;2023-01-10T07:00:45;13.27;;;3.33;;
34896;SDS011;43407;51.828;-2.298;2023-01-10T07:03:10;15.43;;;3.20;;
34896;SDS011;43407;51.828;-2.298;2023-01-10T07:05:36;15.13;;;3.30;;
34896;SDS011;43407;51.828;-2.298;2023-01-10T07:08:01;16.05;;;2.78;;
34896;SDS011;43407;51.828;-2.298;2023-01-10T07:10:27;17.13;;;2.95;;
34896;SDS011;43407;51.828;-2.298;2023-01-10T07:12:55;15.15;;;2.97;;
34896;SDS011;43407;51.828;-2.298;2023-01-10T07:15:21;10.13;;;2.53;;
34896;SDS011;43407;51.828;-2.298;2023-01-10T07:17:47;14.40;;;2.97;;
34896;SDS011;43407;51.828;-2.298;2023-01-10T07:20:12;15.82;;;3.30;;
34896;SDS011;43407;51.828;-2.298;2023-01-10T07:22:38;15.52;;;3.38;;
34896;SDS011;43407;51.828;-2.298;2023-01-10T07:25:04;9.85;;;2.78;;
34896;SDS011;43407;51.828;-2.298;2023-01-10T07:27:30;12.48;;;2.53;;
34896;SDS011;43407;51.828;-2.298;2023-01-10T07:29:56;11.85;;;2.58;;
34896;SDS011;43407;51.828;-2.298;2023-01-10T07:32:22;9.15;;;2.33;;
34896;SDS011;43407;51.828;-2.298;2023-01-10T07:34:48;10.68;;;2.33;;
34896;SDS011;43407;51.828;-2.298;2023-01-10T07:37:13;11.00;;;2.55;;
34896;SDS011;43407;51.828;-2.298;2023-01-10T07:39:39;9.95;;;2.40;;
34896;SDS011;43407;51.828;-2.298;2023-01-10T07:42:06;10.15;;;2.72;;
34896;SDS011;43407;51.828;-2.298;2023-01-10T07:44:35;7.10;;;2.05;;
34896;SDS011;43407;51.828;-2.298;2023-01-10T07:47:00;8.25;;;1.95;;
34896;SDS011;43407;51.828;-2.298;2023-01-10T07:49:26;7.72;;;1.75;;
34896;SDS011;43407;51.828;-2.298;2023-01-10T07:51:51;5.90;;;1.42;;
34896;SDS011;43407;51.828;-2.298;2023-01-10T07:54:17;4.93;;;1.58;;
34896;SDS011;43407;51.828;-2.298;2023-01-10T07:56:43;7.22;;;1.60;;
34896;SDS011;43407;51.828;-2.298;2023-01-10T07:59:11;4.72;;;1.10;;
34896;SDS011;43407;51.828;-2.298;2023-01-10T08:01:37;3.50;;;1.00;;
34896;SDS011;43407;51.828;-2.298;2023-01-10T08:04:02;4.00;;;1.50;;
34896;SDS011;43407;51.828;-2.298;2023-01-10T08:06:28;4.63;;;1.35;;
34896;SDS011;43407;51.828;-2.298;2023-01-10T08:08:53;1.58;;;1.10;;
34896;SDS011;43407;51.828;-2.298;2023-01-10T08:11:19;4.93;;;1.00;;
34896;SDS011;43407;51.828;-2.298;2023-01-10T08:13:44;2.03;;;0.90;;
34896;SDS011;43407;51.828;-2.298;2023-01-10T08:16:10;3.17;;;1.10;;
34896;SDS011;43407;51.828;-2.298;2023-01-10T08:18:36;2.60;;;1.00;;
34896;SDS011;43407;51.828;-2.298;2023-01-10T08:21:03;2.13;;;1.00;;
34896;SDS011;43407;51.828;-2.298;2023-01-10T08:23:28;2.03;;;0.60;;
34896;SDS011;43407;51.828;-2.298;2023-01-10T08:25:56;0.55;;;0.52;;
34896;SDS011;43407;51.828;-2.298;2023-01-10T08:28:22;0.77;;;0.60;;
34896;SDS011;43407;51.828;-2.298;2023-01-10T08:30:48;2.13;;;0.68;;
34896;SDS011;43407;51.828;-2.298;2023-01-10T08:33:13;0.88;;;0.60;;
34896;SDS011;43407;51.828;-2.298;2023-01-10T08:35:40;1.42;;;0.63;;
34896;SDS011;43407;51.828;-2.298;2023-01-10T08:38:07;1.45;;;0.60;;
34896;SDS011;43407;51.828;-2.298;2023-01-10T08:40:33;0.98;;;0.60;;
34896;SDS011;43407;51.828;-2.298;2023-01-10T08:42:59;2.20;;;0.55;;
34896;SDS011;43407;51.828;-2.298;2023-01-10T08:45:26;0.65;;;0.50;;
34896;SDS011;43407;51.828;-2.298;2023-01-10T08:47:52;0.60;;;0.50;;
34896;SDS011;43407;51.828;-2.298;2023-01-10T08:50:18;0.40;;;0.40;;
34896;SDS011;43407;51.828;-2.298;2023-01-10T08:52:43;0.60;;;0.60;;
34896;SDS011;43407;51.828;-2.298;2023-01-10T08:55:09;2.05;;;0.90;;
34896;SDS011;43407;51.828;-2.298;2023-01-10T08:57:34;0.70;;;0.70;;
34896;SDS011;43407;51.828;-2.298;2023-01-10T09:00:00;0.75;;;0.50;;
34896;SDS011;43407;51.828;-2.298;2023-01-10T09:02:26;0.60;;;0.57;;
34896;SDS011;43407;51.828;-2.298;2023-01-10T09:04:51;0.82;;;0.73;;
34896;SDS011;43407;51.828;-2.298;2023-01-10T09:07:17;0.60;;;0.60;;
34896;SDS011;43407;51.828;-2.298;2023-01-10T09:09:42;1.38;;;0.60;;
34896;SDS011;43407;51.828;-2.298;2023-01-10T09:12:08;0.80;;;0.47;;
34896;SDS011;43407;51.828;-2.298;2023-01-10T09:14:52;2.25;;;0.57;;
34896;SDS011;43407;51.828;-2.298;2023-01-10T09:17:18;0.82;;;0.50;;
34896;SDS011;43407;51.828;-2.298;2023-01-10T09:19:43;0.50;;;0.50;;
34896;SDS011;43407;51.828;-2.298;2023-01-10T09:22:09;1.05;;;0.50;;
34896;SDS011;43407;51.828;-2.298;2023-01-10T09:24:34;1.00;;;0.50;;
34896;SDS011;43407;51.828;-2.298;2023-01-10T09:27:01;0.47;;;0.45;;
34896;SDS011;43407;51.828;-2.298;2023-01-10T09:29:27;0.40;;;0.40;;
34896;SDS011;43407;51.828;-2.298;2023-01-10T09:31:52;1.58;;;0.30;;
34896;SDS011;43407;51.828;-2.298;2023-01-10T09:34:18;2.08;;;0.60;;
34896;SDS011;43407;51.828;-2.298;2023-01-10T09:36:43;0.75;;;0.50;;
34896;SDS011;43407;51.828;-2.298;2023-01-10T09:39:09;1.27;;;0.50;;
34896;SDS011;43407;51.828;-2.298;2023-01-10T09:41:45;0.75;;;0.60;;
34896;SDS011;43407;51.828;-2.298;2023-01-10T09:45:11;1.20;;;0.70;;
34896;SDS011;43407;51.828;-2.298;2023-01-10T09:48:03;1.00;;;0.40;;
34896;SDS011;43407;51.828;-2.298;2023-01-10T09:53:04;0.70;;;0.55;;
34896;SDS011;43407;51.828;-2.298;2023-01-10T09:55:35;0.55;;;0.55;;
34896;SDS011;43407;51.828;-2.298;2023-01-10T09:58:05;1.98;;;0.45;;
34896;SDS011;43407;51.828;-2.298;2023-01-10T10:00:44;0.50;;;0.50;;
34896;SDS011;43407;51.828;-2.298;2023-01-10T10:03:16;1.13;;;0.50;;
34896;SDS011;43407;51.828;-2.298;2023-01-10T10:05:45;0.60;;;0.45;;
34896;SDS011;43407;51.828;-2.298;2023-01-10T10:08:13;1.33;;;0.60;;
34896;SDS011;43407;51.828;-2.298;2023-01-10T10:10:42;0.73;;;0.32;;
34896;SDS011;43407;51.828;-2.298;2023-01-10T10:21:57;2.53;;;0.50;;
34896;SDS011;43407;51.828;-2.298;2023-01-10T10:24:23;1.02;;;0.60;;
34896;SDS011;43407;51.828;-2.298;2023-01-10T10:27:16;0.88;;;0.40;;
34896;SDS011;43407;51.828;-2.298;2023-01-10T10:37:34;3.60;;;0.90;;
34896;SDS011;43407;51.828;-2.298;2023-01-10T10:40:04;2.00;;;0.77;;
34896;SDS011;43407;51.828;-2.298;2023-01-10T10:42:36;1.63;;;0.70;;
34896;SDS011;43407;51.828;-2.298;2023-01-10T10:45:17;2.10;;;0.70;;
34896;SDS011;43407;51.828;-2.298;2023-01-10T10:47:45;1.65;;;0.80;;
34896;SDS011;43407;51.828;-2.298;2023-01-10T10:50:33;3.85;;;0.90;;
34896;SDS011;43407;51.828;-2.298;2023-01-10T10:53:01;5.63;;;1.08;;
34896;SDS011;43407;51.828;-2.298;2023-01-10T10:55:28;8.55;;;1.27;;
34896;SDS011;43407;51.828;-2.298;2023-01-10T10:57:58;4.75;;;1.33;;
34896;SDS011;43407;51.828;-2.298;2023-01-10T11:00:24;7.00;;;1.80;;
34896;SDS011;43407;51.828;-2.298;2023-01-10T11:02:52;7.00;;;2.00;;
34896;SDS011;43407;51.828;-2.298;2023-01-10T11:05:44;10.73;;;2.30;;
34896;SDS011;43407;51.828;-2.298;2023-01-10T11:08:11;12.85;;;2.47;;
34896;SDS011;43407;51.828;-2.298;2023-01-10T11:10:37;8.38;;;2.10;;
34896;SDS011;43407;51.828;-2.298;2023-01-10T11:13:11;12.65;;;2.20;;
34896;SDS011;43407;51.828;-2.298;2023-01-10T11:15:43;13.43;;;2.22;;
34896;SDS011;43407;51.828;-2.298;2023-01-10T11:18:14;11.32;;;2.85;;
34896;SDS011;43407;51.828;-2.298;2023-01-10T11:21:08;16.50;;;2.60;;
34896;SDS011;43407;51.828;-2.298;2023-01-10T11:26:07;13.80;;;2.33;;
34896;SDS011;43407;51.828;-2.298;2023-01-10T11:28:35;11.30;;;2.53;;
34896;SDS011;43407;51.828;-2.298;2023-01-10T11:31:01;11.18;;;2.00;;
34896;SDS011;43407;51.828;-2.298;2023-01-10T11:33:28;16.33;;;3.05;;
34896;SDS011;43407;51.828;-2.298;2023-01-10T11:35:59;11.70;;;2.45;;
34896;SDS011;43407;51.828;-2.298;2023-01-10T11:38:30;9.77;;;2.17;;
34896;SDS011;43407;51.828;-2.298;2023-01-10T11:43:37;13.52;;;2.25;;
34896;SDS011;43407;51.828;-2.298;2023-01-10T11:46:05;16.77;;;2.70;;
34896;SDS011;43407;51.828;-2.298;2023-01-10T11:49:04;13.00;;;2.47;;
34896;SDS011;43407;51.828;-2.298;2023-01-10T11:51:36;12.52;;;2.50;;
34896;SDS011;43407;51.828;-2.298;2023-01-10T11:56:33;14.70;;;2.42;;
34896;SDS011;43407;51.828;-2.298;2023-01-10T11:59:05;10.18;;;2.15;;
34896;SDS011;43407;51.828;-2.298;2023-01-10T12:01:42;12.32;;;2.45;;
34896;SDS011;43407;51.828;-2.298;2023-01-10T12:04:17;20.48;;;2.55;;
34896;SDS011;43407;51.828;-2.298;2023-01-10T12:06:46;11.30;;;2.30;;
34896;SDS011;43407;51.828;-2.298;2023-01-10T12:12:00;17.50;;;2.97;;
34896;SDS011;43407;51.828;-2.298;2023-01-10T12:14:31;17.20;;;2.60;;
34896;SDS011;43407;51.828;-2.298;2023-01-10T12:17:00;12.80;;;2.92;;
34896;SDS011;43407;51.828;-2.298;2023-01-10T12:19:27;12.57;;;3.22;;
34896;SDS011;43407;51.828;-2.298;2023-01-10T12:21:54;15.38;;;3.35;;
34896;SDS011;43407;51.828;-2.298;2023-01-10T12:24:23;10.75;;;2.70;;
34896;SDS011;43407;51.828;-2.298;2023-01-10T12:26:58;15.15;;;3.53;;
34896;SDS011;43407;51.828;-2.298;2023-01-10T12:29:28;20.38;;;3.67;;
34896;SDS011;43407;51.828;-2.298;2023-01-10T12:32:02;12.38;;;2.88;;
34896;SDS011;43407;51.828;-2.298;2023-01-10T12:35:12;9.63;;;2.80;;
34896;SDS011;43407;51.828;-2.298;2023-01-10T12:37:26;14.50;;;3.10;;
34896;SDS011;43407;51.828;-2.298;2023-01-10T12:40:24;14.02;;;2.83;;
34896;SDS011;43407;51.828;-2.298;2023-01-10T12:46:08;15.25;;;2.70;;
34896;SDS011;43407;51.828;-2.298;2023-01-10T12:49:00;13.77;;;2.83;;
34896;SDS011;43407;51.828;-2.298;2023-01-10T12:51:28;10.63;;;2.47;;
34896;SDS011;43407;51.828;-2.298;2023-01-10T12:53:55;10.60;;;2.50;;
34896;SDS011;43407;51.828;-2.298;2023-01-10T12:56:26;9.35;;;2.63;;
34896;SDS011;43407;51.828;-2.298;2023-01-10T12:59:13;12.52;;;2.33;;
34896;SDS011;43407;51.828;-2.298;2023-01-10T13:02:20;9.73;;;2.60;;
34896;SDS011;43407;51.828;-2.298;2023-01-10T13:04:49;12.93;;;2.30;;
34896;SDS011;43407;51.828;-2.298;2023-01-10T13:07:17;15.80;;;3.30;;
34896;SDS011;43407;51.828;-2.298;2023-01-10T13:09:43;12.55;;;3.10;;
34896;SDS011;43407;51.828;-2.298;2023-01-10T13:12:11;12.60;;;2.78;;
34896;SDS011;43407;51.828;-2.298;2023-01-10T13:14:49;12.38;;;2.50;;
34896;SDS011;43407;51.828;-2.298;2023-01-10T13:17:24;14.93;;;2.88;;
34896;SDS011;43407;51.828;-2.298;2023-01-10T13:22:56;9.60;;;2.58;;
34896;SDS011;43407;51.828;-2.298;2023-01-10T13:28:01;10.98;;;2.40;;
34896;SDS011;43407;51.828;-2.298;2023-01-10T13:32:59;11.25;;;2.33;;
34896;SDS011;43407;51.828;-2.298;2023-01-10T13:35:27;19.08;;;2.75;;
34896;SDS011;43407;51.828;-2.298;2023-01-10T13:38:04;16.00;;;2.85;;
34896;SDS011;43407;51.828;-2.298;2023-01-10T13:40:31;8.07;;;2.17;;
34896;SDS011;43407;51.828;-2.298;2023-01-10T13:48:41;9.55;;;2.10;;
34896;SDS011;43407;51.828;-2.298;2023-01-10T13:51:28;9.68;;;2.00;;
34896;SDS011;43407;51.828;-2.298;2023-01-10T13:53:58;11.57;;;2.53;;
34896;SDS011;43407;51.828;-2.298;2023-01-10T13:58:58;11.13;;;2.17;;
34896;SDS011;43407;51.828;-2.298;2023-01-10T14:01:49;9.40;;;2.10;;
34896;SDS011;43407;51.828;-2.298;2023-01-10T14:04:36;9.13;;;2.38;;
34896;SDS011;43407;51.828;-2.298;2023-01-10T14:07:05;8.90;;;2.08;;
34896;SDS011;43407;51.828;-2.298;2023-01-10T14:09:39;15.18;;;2.90;;
34896;SDS011;43407;51.828;-2.298;2023-01-10T14:12:16;10.40;;;2.50;;
34896;SDS011;43407;51.828;-2.298;2023-01-10T14:17:56;13.25;;;2.33;;
34896;SDS011;43407;51.828;-2.298;2023-01-10T14:20:24;11.45;;;2.25;;
34896;SDS011;43407;51.828;-2.298;2023-01-10T14:23:24;12.52;;;2.63;;
34896;SDS011;43407;51.828;-2.298;2023-01-10T14:25:43;13.57;;;2.50;;
34896;SDS011;43407;51.828;-2.298;2023-01-10T14:28:15;9.23;;;1.90;;
34896;SDS011;43407;51.828;-2.298;2023-01-10T14:30:45;9.02;;;1.75;;
34896;SDS011;43407;51.828;-2.298;2023-01-10T14:36:07;14.70;;;2.35;;
34896;SDS011;43407;51.828;-2.298;2023-01-10T14:38:35;10.82;;;2.90;;
34896;SDS011;43407;51.828;-2.298;2023-01-10T14:41:03;8.73;;;1.98;;
34896;SDS011;43407;51.828;-2.298;2023-01-10T14:43:32;15.43;;;2.88;;
34896;SDS011;43407;51.828;-2.298;2023-01-10T14:48:32;10.90;;;2.22;;
34896;SDS011;43407;51.828;-2.298;2023-01-10T14:51:15;16.77;;;2.83;;
34896;SDS011;43407;51.828;-2.298;2023-01-10T14:53:42;14.15;;;3.10;;
34896;SDS011;43407;51.828;-2.298;2023-01-10T14:56:18;13.43;;;3.25;;
34896;SDS011;43407;51.828;-2.298;2023-01-10T14:58:48;15.02;;;2.70;;
34896;SDS011;43407;51.828;-2.298;2023-01-10T15:01:20;18.42;;;3.42;;
34896;SDS011;43407;51.828;-2.298;2023-01-10T15:03:48;19.95;;;3.15;;
34896;SDS011;43407;51.828;-2.298;2023-01-10T15:06:14;16.88;;;3.28;;
34896;SDS011;43407;51.828;-2.298;2023-01-10T15:08:40;14.50;;;3.08;;
34896;SDS011;43407;51.828;-2.298;2023-01-10T15:11:06;18.42;;;3.38;;
34896;SDS011;43407;51.828;-2.298;2023-01-10T15:13:47;20.15;;;3.40;;
34896;SDS011;43407;51.828;-2.298;2023-01-10T15:16:20;18.63;;;3.87;;
34896;SDS011;43407;51.828;-2.298;2023-01-10T15:18:47;18.02;;;3.65;;
34896;SDS011;43407;51.828;-2.298;2023-01-10T15:21:13;15.88;;;3.83;;
34896;SDS011;43407;51.828;-2.298;2023-01-10T15:23:41;16.92;;;3.40;;
34896;SDS011;43407;51.828;-2.298;2023-01-10T15:26:08;20.60;;;5.03;;
34896;SDS011;43407;51.828;-2.298;2023-01-10T15:29:13;20.10;;;4.82;;
34896;SDS011;43407;51.828;-2.298;2023-01-10T15:31:43;22.88;;;3.55;;
34896;SDS011;43407;51.828;-2.298;2023-01-10T15:34:10;17.00;;;3.88;;
34896;SDS011;43407;51.828;-2.298;2023-01-10T15:36:44;16.20;;;4.00;;
34896;SDS011;43407;51.828;-2.298;2023-01-10T15:39:15;16.38;;;3.55;;
34896;SDS011;43407;51.828;-2.298;2023-01-10T15:42:06;17.63;;;4.07;;
34896;SDS011;43407;51.828;-2.298;2023-01-10T15:44:38;16.25;;;4.07;;
34896;SDS011;43407;51.828;-2.298;2023-01-10T15:49:54;23.80;;;4.15;;
34896;SDS011;43407;51.828;-2.298;2023-01-10T15:52:23;28.80;;;4.45;;
34896;SDS011;43407;51.828;-2.298;2023-01-10T15:54:48;30.08;;;4.57;;
34896;SDS011;43407;51.828;-2.298;2023-01-10T15:57:36;38.97;;;4.40;;
34896;SDS011;43407;51.828;-2.298;2023-01-10T16:00:00;22.67;;;4.50;;
34896;SDS011;43407;51.828;-2.298;2023-01-10T16:04:56;18.10;;;3.90;;
34896;SDS011;43407;51.828;-2.298;2023-01-10T16:07:25;25.58;;;4.38;;
34896;SDS011;43407;51.828;-2.298;2023-01-10T16:09:59;23.35;;;4.35;;
34896;SDS011;43407;51.828;-2.298;2023-01-10T16:12:36;26.50;;;4.53;;
34896;SDS011;43407;51.828;-2.298;2023-01-10T16:15:23;29.77;;;4.95;;
34896;SDS011;43407;51.828;-2.298;2023-01-10T16:17:50;26.15;;;4.60;;